Weather at RAF Gaza [CLOSED]

Public forecast

Using degrees Celsius for public forecast. Weather courtesy of forecast.io.

Closest aviation weather report (METAR) to RAF Gaza

Closest report is Ben Gurion International Airport, 38.5 nm (71.3 km) NNE.

2024/05/26 20:20 (retrieved 34 minutes ago)

LLBG 262020Z VRB03KT CAVOK 22/16 Q1011 NOSIG

Closest aviation forecast (TAF) to RAF Gaza

Forecast is more than 12 hours old.

Closest forecast is El Jora Airport, 29.0 nm (53.7 km) SW.

2024/05/25 12:00 (retrieved 1 day ago)

TAF HEGR 251100Z 2512/2618 30012KT 9999 SCT025